sensor_id;sensor_type;location;lat;lon;timestamp;P1;durP1;ratioP1;P2;durP2;ratioP2
72301;SDS011;60235;52.234;5.186;2022-07-31T00:01:12;7.30;;;3.17;;
72301;SDS011;60235;52.234;5.186;2022-07-31T00:03:38;8.25;;;3.17;;
72301;SDS011;60235;52.234;5.186;2022-07-31T00:06:04;7.00;;;3.50;;
72301;SDS011;60235;52.234;5.186;2022-07-31T00:08:30;10.52;;;4.13;;
72301;SDS011;60235;52.234;5.186;2022-07-31T00:10:56;7.15;;;3.58;;
72301;SDS011;60235;52.234;5.186;2022-07-31T00:13:22;9.25;;;3.55;;
72301;SDS011;60235;52.234;5.186;2022-07-31T00:15:48;8.55;;;3.80;;
72301;SDS011;60235;52.234;5.186;2022-07-31T00:18:14;8.15;;;3.42;;
72301;SDS011;60235;52.234;5.186;2022-07-31T00:20:40;8.38;;;3.65;;
72301;SDS011;60235;52.234;5.186;2022-07-31T00:23:06;10.70;;;3.60;;
72301;SDS011;60235;52.234;5.186;2022-07-31T00:25:32;9.98;;;3.92;;
72301;SDS011;60235;52.234;5.186;2022-07-31T00:27:58;9.98;;;3.60;;
72301;SDS011;60235;52.234;5.186;2022-07-31T00:30:24;11.55;;;3.85;;
72301;SDS011;60235;52.234;5.186;2022-07-31T00:32:50;7.32;;;3.28;;
72301;SDS011;60235;52.234;5.186;2022-07-31T00:35:16;7.70;;;3.60;;
72301;SDS011;60235;52.234;5.186;2022-07-31T00:37:42;8.90;;;3.28;;
72301;SDS011;60235;52.234;5.186;2022-07-31T00:40:10;6.90;;;2.83;;
72301;SDS011;60235;52.234;5.186;2022-07-31T00:42:37;8.07;;;3.40;;
72301;SDS011;60235;52.234;5.186;2022-07-31T00:45:03;6.63;;;2.80;;
72301;SDS011;60235;52.234;5.186;2022-07-31T00:47:29;9.48;;;3.08;;
72301;SDS011;60235;52.234;5.186;2022-07-31T00:49:55;8.95;;;3.30;;
72301;SDS011;60235;52.234;5.186;2022-07-31T00:52:21;8.85;;;2.95;;
72301;SDS011;60235;52.234;5.186;2022-07-31T00:54:47;9.93;;;3.13;;
72301;SDS011;60235;52.234;5.186;2022-07-31T00:57:13;8.57;;;2.88;;
72301;SDS011;60235;52.234;5.186;2022-07-31T00:59:39;8.40;;;2.97;;
72301;SDS011;60235;52.234;5.186;2022-07-31T01:02:06;8.75;;;3.10;;
72301;SDS011;60235;52.234;5.186;2022-07-31T01:04:35;7.97;;;2.83;;
72301;SDS011;60235;52.234;5.186;2022-07-31T01:07:01;7.70;;;2.80;;
72301;SDS011;60235;52.234;5.186;2022-07-31T01:09:27;7.15;;;2.30;;
72301;SDS011;60235;52.234;5.186;2022-07-31T01:11:58;9.80;;;2.55;;
72301;SDS011;60235;52.234;5.186;2022-07-31T01:14:27;9.55;;;3.00;;
72301;SDS011;60235;52.234;5.186;2022-07-31T01:16:53;8.23;;;3.05;;
72301;SDS011;60235;52.234;5.186;2022-07-31T01:30:20;7.43;;;2.38;;
72301;SDS011;60235;52.234;5.186;2022-07-31T01:32:48;6.93;;;2.38;;
72301;SDS011;60235;52.234;5.186;2022-07-31T01:35:26;7.95;;;2.65;;
72301;SDS011;60235;52.234;5.186;2022-07-31T01:37:54;8.73;;;2.63;;
72301;SDS011;60235;52.234;5.186;2022-07-31T01:40:25;7.18;;;2.83;;
72301;SDS011;60235;52.234;5.186;2022-07-31T01:42:54;8.68;;;2.83;;
72301;SDS011;60235;52.234;5.186;2022-07-31T01:45:21;10.90;;;2.83;;
72301;SDS011;60235;52.234;5.186;2022-07-31T01:47:49;7.03;;;2.78;;
72301;SDS011;60235;52.234;5.186;2022-07-31T01:50:16;7.40;;;3.13;;
72301;SDS011;60235;52.234;5.186;2022-07-31T01:52:43;8.40;;;2.50;;
72301;SDS011;60235;52.234;5.186;2022-07-31T01:55:09;8.75;;;2.70;;
72301;SDS011;60235;52.234;5.186;2022-07-31T01:57:37;7.35;;;2.65;;
72301;SDS011;60235;52.234;5.186;2022-07-31T02:00:05;5.85;;;2.42;;
72301;SDS011;60235;52.234;5.186;2022-07-31T02:02:32;7.35;;;2.55;;
72301;SDS011;60235;52.234;5.186;2022-07-31T02:04:59;9.48;;;3.00;;
72301;SDS011;60235;52.234;5.186;2022-07-31T02:07:26;7.18;;;2.72;;
72301;SDS011;60235;52.234;5.186;2022-07-31T02:09:53;11.10;;;3.10;;
72301;SDS011;60235;52.234;5.186;2022-07-31T02:12:19;8.18;;;2.70;;
72301;SDS011;60235;52.234;5.186;2022-07-31T02:14:46;8.45;;;2.72;;
72301;SDS011;60235;52.234;5.186;2022-07-31T02:17:12;9.70;;;2.92;;
72301;SDS011;60235;52.234;5.186;2022-07-31T02:19:39;10.40;;;2.92;;
72301;SDS011;60235;52.234;5.186;2022-07-31T02:22:06;6.60;;;2.90;;
72301;SDS011;60235;52.234;5.186;2022-07-31T02:24:32;10.35;;;3.10;;
72301;SDS011;60235;52.234;5.186;2022-07-31T02:26:58;9.43;;;2.72;;
72301;SDS011;60235;52.234;5.186;2022-07-31T02:29:25;9.77;;;2.85;;
72301;SDS011;60235;52.234;5.186;2022-07-31T02:31:52;8.70;;;3.13;;
72301;SDS011;60235;52.234;5.186;2022-07-31T02:34:19;11.00;;;3.20;;
72301;SDS011;60235;52.234;5.186;2022-07-31T02:36:47;7.97;;;3.17;;
72301;SDS011;60235;52.234;5.186;2022-07-31T02:39:14;11.05;;;3.35;;
72301;SDS011;60235;52.234;5.186;2022-07-31T02:41:40;9.15;;;3.20;;
72301;SDS011;60235;52.234;5.186;2022-07-31T02:44:07;9.07;;;3.67;;
72301;SDS011;60235;52.234;5.186;2022-07-31T02:46:35;8.85;;;3.75;;
72301;SDS011;60235;52.234;5.186;2022-07-31T02:49:01;9.48;;;4.03;;
72301;SDS011;60235;52.234;5.186;2022-07-31T02:51:28;15.05;;;4.53;;
72301;SDS011;60235;52.234;5.186;2022-07-31T02:53:55;10.55;;;3.78;;
72301;SDS011;60235;52.234;5.186;2022-07-31T02:56:22;9.48;;;4.07;;
72301;SDS011;60235;52.234;5.186;2022-07-31T02:58:49;9.32;;;4.10;;
72301;SDS011;60235;52.234;5.186;2022-07-31T03:01:15;11.15;;;3.90;;
72301;SDS011;60235;52.234;5.186;2022-07-31T03:03:41;14.23;;;4.63;;
72301;SDS011;60235;52.234;5.186;2022-07-31T03:06:07;9.93;;;3.58;;
72301;SDS011;60235;52.234;5.186;2022-07-31T03:08:33;9.93;;;3.92;;
72301;SDS011;60235;52.234;5.186;2022-07-31T03:10:59;12.90;;;4.88;;
72301;SDS011;60235;52.234;5.186;2022-07-31T03:13:26;8.68;;;3.85;;
72301;SDS011;60235;52.234;5.186;2022-07-31T03:15:53;10.73;;;4.60;;
72301;SDS011;60235;52.234;5.186;2022-07-31T03:18:20;11.15;;;4.65;;
72301;SDS011;60235;52.234;5.186;2022-07-31T03:20:46;11.93;;;5.15;;
72301;SDS011;60235;52.234;5.186;2022-07-31T03:23:16;13.20;;;4.50;;
72301;SDS011;60235;52.234;5.186;2022-07-31T03:25:42;14.57;;;4.40;;
72301;SDS011;60235;52.234;5.186;2022-07-31T03:28:08;8.82;;;4.60;;
72301;SDS011;60235;52.234;5.186;2022-07-31T03:30:34;11.85;;;5.00;;
72301;SDS011;60235;52.234;5.186;2022-07-31T03:33:00;10.88;;;4.85;;
72301;SDS011;60235;52.234;5.186;2022-07-31T03:35:27;11.65;;;5.50;;
72301;SDS011;60235;52.234;5.186;2022-07-31T03:37:53;14.27;;;5.15;;
72301;SDS011;60235;52.234;5.186;2022-07-31T03:40:19;12.93;;;4.93;;
72301;SDS011;60235;52.234;5.186;2022-07-31T03:42:48;10.95;;;4.80;;
72301;SDS011;60235;52.234;5.186;2022-07-31T03:45:15;12.98;;;5.65;;
72301;SDS011;60235;52.234;5.186;2022-07-31T03:47:41;12.35;;;5.97;;
72301;SDS011;60235;52.234;5.186;2022-07-31T03:50:07;11.90;;;4.82;;
72301;SDS011;60235;52.234;5.186;2022-07-31T03:52:34;12.38;;;5.10;;
72301;SDS011;60235;52.234;5.186;2022-07-31T03:55:00;13.38;;;5.18;;
72301;SDS011;60235;52.234;5.186;2022-07-31T03:57:26;11.57;;;5.30;;
72301;SDS011;60235;52.234;5.186;2022-07-31T03:59:53;10.60;;;5.15;;
72301;SDS011;60235;52.234;5.186;2022-07-31T04:02:21;8.27;;;4.68;;
72301;SDS011;60235;52.234;5.186;2022-07-31T04:04:49;11.23;;;5.18;;
72301;SDS011;60235;52.234;5.186;2022-07-31T04:07:15;14.20;;;5.25;;
72301;SDS011;60235;52.234;5.186;2022-07-31T04:09:41;12.23;;;4.85;;
72301;SDS011;60235;52.234;5.186;2022-07-31T04:12:07;11.93;;;4.97;;
72301;SDS011;60235;52.234;5.186;2022-07-31T04:14:34;11.82;;;5.15;;
72301;SDS011;60235;52.234;5.186;2022-07-31T04:17:00;10.00;;;5.28;;
72301;SDS011;60235;52.234;5.186;2022-07-31T04:19:26;12.30;;;5.70;;
72301;SDS011;60235;52.234;5.186;2022-07-31T04:21:55;11.80;;;5.35;;
72301;SDS011;60235;52.234;5.186;2022-07-31T04:24:21;13.38;;;5.13;;
72301;SDS011;60235;52.234;5.186;2022-07-31T04:26:47;11.93;;;5.82;;
72301;SDS011;60235;52.234;5.186;2022-07-31T04:29:13;15.40;;;6.40;;
72301;SDS011;60235;52.234;5.186;2022-07-31T04:31:39;12.93;;;6.72;;
72301;SDS011;60235;52.234;5.186;2022-07-31T04:34:05;14.45;;;6.40;;
72301;SDS011;60235;52.234;5.186;2022-07-31T04:36:31;12.38;;;6.20;;
72301;SDS011;60235;52.234;5.186;2022-07-31T04:38:58;13.43;;;5.97;;
72301;SDS011;60235;52.234;5.186;2022-07-31T04:41:24;13.93;;;5.72;;
72301;SDS011;60235;52.234;5.186;2022-07-31T04:43:50;14.27;;;5.72;;
72301;SDS011;60235;52.234;5.186;2022-07-31T04:46:16;12.15;;;5.68;;
72301;SDS011;60235;52.234;5.186;2022-07-31T04:48:42;15.18;;;6.32;;
72301;SDS011;60235;52.234;5.186;2022-07-31T04:51:08;10.85;;;5.50;;
72301;SDS011;60235;52.234;5.186;2022-07-31T04:53:40;12.60;;;6.00;;
72301;SDS011;60235;52.234;5.186;2022-07-31T04:56:06;14.50;;;5.82;;
72301;SDS011;60235;52.234;5.186;2022-07-31T04:58:51;14.93;;;6.43;;
72301;SDS011;60235;52.234;5.186;2022-07-31T05:01:17;13.98;;;6.30;;
72301;SDS011;60235;52.234;5.186;2022-07-31T05:03:43;11.90;;;5.68;;
72301;SDS011;60235;52.234;5.186;2022-07-31T05:06:09;13.65;;;6.03;;
72301;SDS011;60235;52.234;5.186;2022-07-31T05:08:35;11.07;;;5.93;;
72301;SDS011;60235;52.234;5.186;2022-07-31T05:11:01;12.52;;;5.80;;
72301;SDS011;60235;52.234;5.186;2022-07-31T05:13:46;12.77;;;5.78;;
72301;SDS011;60235;52.234;5.186;2022-07-31T05:16:12;12.63;;;5.25;;
72301;SDS011;60235;52.234;5.186;2022-07-31T05:18:38;16.30;;;5.95;;
72301;SDS011;60235;52.234;5.186;2022-07-31T05:21:04;11.48;;;5.65;;
72301;SDS011;60235;52.234;5.186;2022-07-31T05:23:30;10.82;;;5.07;;
72301;SDS011;60235;52.234;5.186;2022-07-31T05:25:56;10.05;;;5.18;;
72301;SDS011;60235;52.234;5.186;2022-07-31T05:28:22;13.00;;;5.07;;
72301;SDS011;60235;52.234;5.186;2022-07-31T05:30:48;12.35;;;4.90;;
72301;SDS011;60235;52.234;5.186;2022-07-31T05:33:14;12.07;;;4.85;;
72301;SDS011;60235;52.234;5.186;2022-07-31T05:35:40;13.55;;;5.75;;
72301;SDS011;60235;52.234;5.186;2022-07-31T05:38:06;12.98;;;5.95;;
72301;SDS011;60235;52.234;5.186;2022-07-31T05:40:32;12.27;;;6.18;;
72301;SDS011;60235;52.234;5.186;2022-07-31T05:42:58;12.35;;;6.25;;
72301;SDS011;60235;52.234;5.186;2022-07-31T05:45:24;12.55;;;5.78;;
72301;SDS011;60235;52.234;5.186;2022-07-31T05:47:50;13.35;;;5.72;;
72301;SDS011;60235;52.234;5.186;2022-07-31T05:50:17;14.85;;;6.53;;
72301;SDS011;60235;52.234;5.186;2022-07-31T05:52:43;15.70;;;6.53;;
72301;SDS011;60235;52.234;5.186;2022-07-31T05:55:09;12.48;;;6.03;;
72301;SDS011;60235;52.234;5.186;2022-07-31T05:57:35;13.73;;;6.60;;
72301;SDS011;60235;52.234;5.186;2022-07-31T06:00:01;16.38;;;6.95;;
72301;SDS011;60235;52.234;5.186;2022-07-31T06:02:27;16.80;;;6.93;;
72301;SDS011;60235;52.234;5.186;2022-07-31T06:04:53;15.38;;;7.38;;
72301;SDS011;60235;52.234;5.186;2022-07-31T06:07:19;14.32;;;6.75;;
72301;SDS011;60235;52.234;5.186;2022-07-31T06:09:45;14.75;;;7.65;;
72301;SDS011;60235;52.234;5.186;2022-07-31T06:12:11;17.17;;;7.43;;
72301;SDS011;60235;52.234;5.186;2022-07-31T06:14:37;13.27;;;6.90;;
72301;SDS011;60235;52.234;5.186;2022-07-31T06:17:04;17.90;;;7.72;;
72301;SDS011;60235;52.234;5.186;2022-07-31T06:19:31;17.33;;;8.18;;
72301;SDS011;60235;52.234;5.186;2022-07-31T06:21:57;17.58;;;8.32;;
72301;SDS011;60235;52.234;5.186;2022-07-31T06:24:23;20.58;;;8.68;;
72301;SDS011;60235;52.234;5.186;2022-07-31T06:26:50;22.10;;;8.65;;
72301;SDS011;60235;52.234;5.186;2022-07-31T06:29:16;17.73;;;8.43;;
72301;SDS011;60235;52.234;5.186;2022-07-31T06:31:42;16.42;;;8.07;;
72301;SDS011;60235;52.234;5.186;2022-07-31T06:34:08;20.27;;;8.43;;
72301;SDS011;60235;52.234;5.186;2022-07-31T06:36:34;20.33;;;8.98;;
72301;SDS011;60235;52.234;5.186;2022-07-31T06:39:00;19.17;;;9.38;;
72301;SDS011;60235;52.234;5.186;2022-07-31T06:41:26;21.92;;;9.82;;
72301;SDS011;60235;52.234;5.186;2022-07-31T06:44:10;25.63;;;10.40;;
72301;SDS011;60235;52.234;5.186;2022-07-31T06:46:36;26.08;;;9.80;;
72301;SDS011;60235;52.234;5.186;2022-07-31T06:49:03;23.30;;;10.63;;
72301;SDS011;60235;52.234;5.186;2022-07-31T06:51:29;23.67;;;10.57;;
72301;SDS011;60235;52.234;5.186;2022-07-31T06:53:55;27.17;;;10.35;;
72301;SDS011;60235;52.234;5.186;2022-07-31T06:56:21;20.42;;;10.10;;
72301;SDS011;60235;52.234;5.186;2022-07-31T06:58:47;21.15;;;10.32;;
72301;SDS011;60235;52.234;5.186;2022-07-31T07:01:13;24.02;;;10.68;;
72301;SDS011;60235;52.234;5.186;2022-07-31T07:03:39;29.15;;;12.63;;
72301;SDS011;60235;52.234;5.186;2022-07-31T07:06:05;25.05;;;12.25;;
72301;SDS011;60235;52.234;5.186;2022-07-31T07:08:31;33.15;;;13.05;;
72301;SDS011;60235;52.234;5.186;2022-07-31T07:10:57;31.50;;;13.02;;
72301;SDS011;60235;52.234;5.186;2022-07-31T07:13:23;30.35;;;13.35;;
72301;SDS011;60235;52.234;5.186;2022-07-31T07:15:52;31.20;;;13.75;;
72301;SDS011;60235;52.234;5.186;2022-07-31T07:18:18;28.85;;;14.13;;
72301;SDS011;60235;52.234;5.186;2022-07-31T07:20:46;33.75;;;14.38;;
72301;SDS011;60235;52.234;5.186;2022-07-31T07:23:12;31.08;;;13.98;;
72301;SDS011;60235;52.234;5.186;2022-07-31T07:25:38;34.42;;;15.25;;
72301;SDS011;60235;52.234;5.186;2022-07-31T07:28:05;33.00;;;14.77;;
72301;SDS011;60235;52.234;5.186;2022-07-31T07:30:31;31.65;;;15.02;;
72301;SDS011;60235;52.234;5.186;2022-07-31T07:32:57;31.30;;;14.77;;
72301;SDS011;60235;52.234;5.186;2022-07-31T07:35:23;35.42;;;15.18;;
72301;SDS011;60235;52.234;5.186;2022-07-31T07:37:50;32.35;;;15.07;;
72301;SDS011;60235;52.234;5.186;2022-07-31T07:40:16;37.58;;;15.40;;
72301;SDS011;60235;52.234;5.186;2022-07-31T07:42:42;34.88;;;15.65;;
72301;SDS011;60235;52.234;5.186;2022-07-31T07:45:08;34.42;;;15.32;;
72301;SDS011;60235;52.234;5.186;2022-07-31T07:47:34;32.53;;;15.43;;
72301;SDS011;60235;52.234;5.186;2022-07-31T07:50:01;30.23;;;14.55;;
72301;SDS011;60235;52.234;5.186;2022-07-31T07:52:27;33.92;;;15.57;;
72301;SDS011;60235;52.234;5.186;2022-07-31T07:54:53;30.77;;;14.70;;
72301;SDS011;60235;52.234;5.186;2022-07-31T07:57:19;30.15;;;13.70;;
72301;SDS011;60235;52.234;5.186;2022-07-31T07:59:45;30.48;;;14.75;;
72301;SDS011;60235;52.234;5.186;2022-07-31T08:02:12;35.35;;;15.40;;
72301;SDS011;60235;52.234;5.186;2022-07-31T08:04:38;34.20;;;15.63;;
72301;SDS011;60235;52.234;5.186;2022-07-31T08:07:04;39.47;;;17.17;;
72301;SDS011;60235;52.234;5.186;2022-07-31T08:09:31;33.65;;;15.43;;
72301;SDS011;60235;52.234;5.186;2022-07-31T08:11:57;34.78;;;15.90;;
72301;SDS011;60235;52.234;5.186;2022-07-31T08:14:23;47.88;;;17.90;;
72301;SDS011;60235;52.234;5.186;2022-07-31T08:16:49;36.13;;;16.33;;
72301;SDS011;60235;52.234;5.186;2022-07-31T08:19:15;38.63;;;16.73;;
72301;SDS011;60235;52.234;5.186;2022-07-31T08:21:41;36.88;;;16.58;;
72301;SDS011;60235;52.234;5.186;2022-07-31T08:24:07;38.53;;;17.33;;
72301;SDS011;60235;52.234;5.186;2022-07-31T08:26:35;39.15;;;18.50;;
72301;SDS011;60235;52.234;5.186;2022-07-31T08:29:20;40.20;;;16.58;;
72301;SDS011;60235;52.234;5.186;2022-07-31T08:31:46;40.67;;;17.92;;
72301;SDS011;60235;52.234;5.186;2022-07-31T08:34:12;44.13;;;18.42;;
72301;SDS011;60235;52.234;5.186;2022-07-31T08:36:38;42.63;;;19.38;;
72301;SDS011;60235;52.234;5.186;2022-07-31T08:39:04;42.00;;;18.88;;
72301;SDS011;60235;52.234;5.186;2022-07-31T08:41:30;44.85;;;20.15;;
72301;SDS011;60235;52.234;5.186;2022-07-31T08:43:57;41.35;;;19.95;;
72301;SDS011;60235;52.234;5.186;2022-07-31T08:46:23;45.47;;;20.27;;
72301;SDS011;60235;52.234;5.186;2022-07-31T08:48:50;45.20;;;20.33;;
72301;SDS011;60235;52.234;5.186;2022-07-31T08:51:17;39.25;;;19.30;;
72301;SDS011;60235;52.234;5.186;2022-07-31T08:53:43;41.90;;;19.42;;
72301;SDS011;60235;52.234;5.186;2022-07-31T08:56:10;51.13;;;21.73;;
72301;SDS011;60235;52.234;5.186;2022-07-31T08:58:36;47.95;;;20.38;;
72301;SDS011;60235;52.234;5.186;2022-07-31T09:01:02;48.65;;;20.10;;
72301;SDS011;60235;52.234;5.186;2022-07-31T09:03:28;41.70;;;20.15;;
72301;SDS011;60235;52.234;5.186;2022-07-31T09:05:54;45.70;;;21.13;;
72301;SDS011;60235;52.234;5.186;2022-07-31T09:08:20;46.78;;;20.42;;
72301;SDS011;60235;52.234;5.186;2022-07-31T09:10:47;44.95;;;18.98;;
72301;SDS011;60235;52.234;5.186;2022-07-31T09:13:14;45.05;;;18.92;;
72301;SDS011;60235;52.234;5.186;2022-07-31T09:15:40;40.67;;;17.92;;
72301;SDS011;60235;52.234;5.186;2022-07-31T09:18:20;45.60;;;19.52;;
72301;SDS011;60235;52.234;5.186;2022-07-31T09:20:55;43.40;;;18.70;;
72301;SDS011;60235;52.234;5.186;2022-07-31T09:23:22;42.40;;;19.27;;
72301;SDS011;60235;52.234;5.186;2022-07-31T09:25:58;40.58;;;18.02;;
72301;SDS011;60235;52.234;5.186;2022-07-31T09:28:31;38.20;;;18.58;;
72301;SDS011;60235;52.234;5.186;2022-07-31T09:30:57;39.80;;;19.05;;
72301;SDS011;60235;52.234;5.186;2022-07-31T09:33:25;43.15;;;19.73;;
72301;SDS011;60235;52.234;5.186;2022-07-31T09:35:52;38.25;;;20.38;;
72301;SDS011;60235;52.234;5.186;2022-07-31T09:38:18;41.30;;;20.23;;
72301;SDS011;60235;52.234;5.186;2022-07-31T09:40:45;39.70;;;19.58;;
72301;SDS011;60235;52.234;5.186;2022-07-31T09:43:18;39.67;;;19.67;;
72301;SDS011;60235;52.234;5.186;2022-07-31T09:46:00;42.10;;;19.23;;
72301;SDS011;60235;52.234;5.186;2022-07-31T09:48:27;35.58;;;18.20;;
72301;SDS011;60235;52.234;5.186;2022-07-31T09:50:53;38.10;;;17.92;;
72301;SDS011;60235;52.234;5.186;2022-07-31T09:53:20;34.90;;;18.13;;
72301;SDS011;60235;52.234;5.186;2022-07-31T09:55:49;33.15;;;17.73;;
72301;SDS011;60235;52.234;5.186;2022-07-31T09:58:15;35.10;;;18.52;;
72301;SDS011;60235;52.234;5.186;2022-07-31T10:00:42;38.63;;;18.90;;
72301;SDS011;60235;52.234;5.186;2022-07-31T10:03:08;31.65;;;17.55;;
72301;SDS011;60235;52.234;5.186;2022-07-31T10:05:34;34.15;;;19.33;;
72301;SDS011;60235;52.234;5.186;2022-07-31T10:08:02;34.42;;;19.60;;
72301;SDS011;60235;52.234;5.186;2022-07-31T10:10:28;34.17;;;19.63;;
72301;SDS011;60235;52.234;5.186;2022-07-31T10:12:54;33.15;;;18.58;;
72301;SDS011;60235;52.234;5.186;2022-07-31T10:15:21;33.38;;;19.00;;
72301;SDS011;60235;52.234;5.186;2022-07-31T10:17:48;34.47;;;18.58;;
72301;SDS011;60235;52.234;5.186;2022-07-31T10:20:17;33.58;;;18.73;;
72301;SDS011;60235;52.234;5.186;2022-07-31T10:22:46;36.33;;;19.02;;
72301;SDS011;60235;52.234;5.186;2022-07-31T10:25:20;34.25;;;19.80;;
72301;SDS011;60235;52.234;5.186;2022-07-31T10:27:46;37.08;;;20.20;;
72301;SDS011;60235;52.234;5.186;2022-07-31T10:30:12;36.45;;;21.05;;
72301;SDS011;60235;52.234;5.186;2022-07-31T10:32:39;37.25;;;20.45;;
72301;SDS011;60235;52.234;5.186;2022-07-31T10:35:05;36.45;;;21.58;;
72301;SDS011;60235;52.234;5.186;2022-07-31T10:37:40;39.42;;;21.20;;
72301;SDS011;60235;52.234;5.186;2022-07-31T10:40:12;38.97;;;21.20;;
72301;SDS011;60235;52.234;5.186;2022-07-31T10:42:47;37.28;;;22.33;;
72301;SDS011;60235;52.234;5.186;2022-07-31T10:45:15;38.65;;;21.67;;
72301;SDS011;60235;52.234;5.186;2022-07-31T10:47:54;36.33;;;20.38;;
72301;SDS011;60235;52.234;5.186;2022-07-31T10:50:21;34.03;;;22.10;;
72301;SDS011;60235;52.234;5.186;2022-07-31T10:52:47;37.15;;;21.10;;
72301;SDS011;60235;52.234;5.186;2022-07-31T10:55:18;35.05;;;19.25;;
72301;SDS011;60235;52.234;5.186;2022-07-31T10:57:46;32.25;;;20.20;;
72301;SDS011;60235;52.234;5.186;2022-07-31T11:00:14;29.95;;;20.23;;
72301;SDS011;60235;52.234;5.186;2022-07-31T11:02:44;32.65;;;19.67;;
72301;SDS011;60235;52.234;5.186;2022-07-31T11:05:14;32.97;;;19.38;;
72301;SDS011;60235;52.234;5.186;2022-07-31T11:07:44;35.42;;;21.30;;
72301;SDS011;60235;52.234;5.186;2022-07-31T11:10:17;36.65;;;20.13;;
72301;SDS011;60235;52.234;5.186;2022-07-31T11:12:44;34.20;;;19.77;;
72301;SDS011;60235;52.234;5.186;2022-07-31T11:15:17;35.78;;;20.15;;
72301;SDS011;60235;52.234;5.186;2022-07-31T11:17:43;36.10;;;21.10;;
72301;SDS011;60235;52.234;5.186;2022-07-31T11:20:30;34.28;;;20.88;;
72301;SDS011;60235;52.234;5.186;2022-07-31T11:23:01;33.90;;;20.80;;
72301;SDS011;60235;52.234;5.186;2022-07-31T11:25:28;36.15;;;20.52;;
72301;SDS011;60235;52.234;5.186;2022-07-31T11:28:08;34.80;;;20.42;;
72301;SDS011;60235;52.234;5.186;2022-07-31T11:30:45;34.88;;;21.40;;
72301;SDS011;60235;52.234;5.186;2022-07-31T11:33:12;34.22;;;20.15;;
72301;SDS011;60235;52.234;5.186;2022-07-31T11:35:37;37.20;;;21.08;;
72301;SDS011;60235;52.234;5.186;2022-07-31T11:38:03;36.35;;;20.50;;
72301;SDS011;60235;52.234;5.186;2022-07-31T11:40:29;35.90;;;20.95;;
72301;SDS011;60235;52.234;5.186;2022-07-31T11:42:55;43.25;;;21.83;;
72301;SDS011;60235;52.234;5.186;2022-07-31T11:45:22;40.72;;;21.30;;
72301;SDS011;60235;52.234;5.186;2022-07-31T11:47:48;39.55;;;21.73;;
72301;SDS011;60235;52.234;5.186;2022-07-31T11:50:15;37.10;;;21.70;;
72301;SDS011;60235;52.234;5.186;2022-07-31T11:52:42;40.97;;;24.17;;
72301;SDS011;60235;52.234;5.186;2022-07-31T11:55:09;38.92;;;22.45;;
72301;SDS011;60235;52.234;5.186;2022-07-31T11:57:35;37.75;;;21.55;;
72301;SDS011;60235;52.234;5.186;2022-07-31T12:00:08;34.05;;;19.95;;
72301;SDS011;60235;52.234;5.186;2022-07-31T12:02:38;34.40;;;18.48;;
72301;SDS011;60235;52.234;5.186;2022-07-31T12:05:04;27.42;;;16.55;;
72301;SDS011;60235;52.234;5.186;2022-07-31T12:07:30;27.35;;;14.85;;
72301;SDS011;60235;52.234;5.186;2022-07-31T12:09:56;25.88;;;13.80;;
72301;SDS011;60235;52.234;5.186;2022-07-31T12:12:23;21.35;;;11.32;;
72301;SDS011;60235;52.234;5.186;2022-07-31T12:14:49;22.60;;;12.68;;
72301;SDS011;60235;52.234;5.186;2022-07-31T12:17:19;20.17;;;10.63;;
72301;SDS011;60235;52.234;5.186;2022-07-31T12:19:45;25.88;;;9.93;;
72301;SDS011;60235;52.234;5.186;2022-07-31T12:22:12;19.77;;;9.57;;
72301;SDS011;60235;52.234;5.186;2022-07-31T12:24:38;17.02;;;8.73;;
72301;SDS011;60235;52.234;5.186;2022-07-31T12:27:04;20.42;;;9.38;;
72301;SDS011;60235;52.234;5.186;2022-07-31T12:29:36;13.93;;;7.88;;
72301;SDS011;60235;52.234;5.186;2022-07-31T12:32:02;19.48;;;8.68;;
72301;SDS011;60235;52.234;5.186;2022-07-31T12:37:04;18.33;;;8.35;;
72301;SDS011;60235;52.234;5.186;2022-07-31T12:39:32;17.75;;;8.30;;
72301;SDS011;60235;52.234;5.186;2022-07-31T12:41:59;16.40;;;8.25;;
72301;SDS011;60235;52.234;5.186;2022-07-31T12:44:25;18.42;;;8.70;;
72301;SDS011;60235;52.234;5.186;2022-07-31T12:46:52;18.63;;;9.32;;
72301;SDS011;60235;52.234;5.186;2022-07-31T12:49:18;20.50;;;9.73;;
72301;SDS011;60235;52.234;5.186;2022-07-31T12:51:44;17.02;;;9.00;;
72301;SDS011;60235;52.234;5.186;2022-07-31T12:54:10;20.98;;;8.65;;
72301;SDS011;60235;52.234;5.186;2022-07-31T12:56:38;18.77;;;8.32;;
72301;SDS011;60235;52.234;5.186;2022-07-31T12:59:04;18.95;;;8.48;;
72301;SDS011;60235;52.234;5.186;2022-07-31T13:01:31;15.82;;;7.35;;
72301;SDS011;60235;52.234;5.186;2022-07-31T13:03:57;16.60;;;8.15;;
72301;SDS011;60235;52.234;5.186;2022-07-31T13:06:25;18.20;;;8.18;;
72301;SDS011;60235;52.234;5.186;2022-07-31T13:08:51;19.98;;;7.70;;
72301;SDS011;60235;52.234;5.186;2022-07-31T13:11:17;18.98;;;8.98;;
72301;SDS011;60235;52.234;5.186;2022-07-31T13:13:44;17.73;;;9.00;;
72301;SDS011;60235;52.234;5.186;2022-07-31T13:16:10;19.25;;;8.23;;
72301;SDS011;60235;52.234;5.186;2022-07-31T13:18:36;21.13;;;9.50;;
72301;SDS011;60235;52.234;5.186;2022-07-31T13:21:03;16.73;;;8.43;;
72301;SDS011;60235;52.234;5.186;2022-07-31T13:23:29;19.98;;;9.07;;
72301;SDS011;60235;52.234;5.186;2022-07-31T13:25:55;21.92;;;8.50;;
72301;SDS011;60235;52.234;5.186;2022-07-31T13:28:22;19.65;;;8.48;;
72301;SDS011;60235;52.234;5.186;2022-07-31T13:30:48;18.10;;;8.73;;
72301;SDS011;60235;52.234;5.186;2022-07-31T13:33:14;20.00;;;8.40;;
72301;SDS011;60235;52.234;5.186;2022-07-31T13:35:40;13.80;;;7.55;;
72301;SDS011;60235;52.234;5.186;2022-07-31T13:38:06;17.77;;;8.50;;
72301;SDS011;60235;52.234;5.186;2022-07-31T13:40:32;16.38;;;7.78;;
72301;SDS011;60235;52.234;5.186;2022-07-31T13:43:17;16.50;;;8.25;;
72301;SDS011;60235;52.234;5.186;2022-07-31T13:45:43;19.52;;;7.82;;
72301;SDS011;60235;52.234;5.186;2022-07-31T13:48:10;19.42;;;8.13;;
72301;SDS011;60235;52.234;5.186;2022-07-31T13:50:36;15.88;;;6.97;;
72301;SDS011;60235;52.234;5.186;2022-07-31T13:53:03;17.40;;;7.85;;
72301;SDS011;60235;52.234;5.186;2022-07-31T13:55:29;17.05;;;7.55;;
72301;SDS011;60235;52.234;5.186;2022-07-31T13:57:55;18.65;;;7.28;;
72301;SDS011;60235;52.234;5.186;2022-07-31T14:00:21;15.70;;;6.45;;
72301;SDS011;60235;52.234;5.186;2022-07-31T14:02:47;14.48;;;6.15;;
72301;SDS011;60235;52.234;5.186;2022-07-31T14:05:14;14.95;;;6.28;;
72301;SDS011;60235;52.234;5.186;2022-07-31T14:07:40;12.90;;;6.15;;
72301;SDS011;60235;52.234;5.186;2022-07-31T14:10:06;12.65;;;6.38;;
72301;SDS011;60235;52.234;5.186;2022-07-31T14:12:32;14.68;;;6.78;;
72301;SDS011;60235;52.234;5.186;2022-07-31T14:14:58;17.67;;;6.93;;
72301;SDS011;60235;52.234;5.186;2022-07-31T14:17:24;14.68;;;7.68;;
72301;SDS011;60235;52.234;5.186;2022-07-31T14:19:50;16.38;;;8.45;;
72301;SDS011;60235;52.234;5.186;2022-07-31T14:22:16;13.75;;;7.65;;
72301;SDS011;60235;52.234;5.186;2022-07-31T14:24:42;16.65;;;7.88;;
72301;SDS011;60235;52.234;5.186;2022-07-31T14:27:08;15.93;;;7.43;;
72301;SDS011;60235;52.234;5.186;2022-07-31T14:29:34;17.83;;;6.75;;
72301;SDS011;60235;52.234;5.186;2022-07-31T14:32:00;12.82;;;6.07;;
72301;SDS011;60235;52.234;5.186;2022-07-31T14:34:26;10.88;;;5.30;;
72301;SDS011;60235;52.234;5.186;2022-07-31T14:36:52;11.77;;;5.70;;
72301;SDS011;60235;52.234;5.186;2022-07-31T14:39:18;12.25;;;5.57;;
72301;SDS011;60235;52.234;5.186;2022-07-31T14:41:44;12.40;;;4.80;;
72301;SDS011;60235;52.234;5.186;2022-07-31T14:44:10;12.65;;;4.38;;